Time;durP1;ratioP1;P1;durP2;ratioP2;P2;SDS_P1;SDS_P2;PMS_P1;PMS_P2;Temp;Humidity;BMP_temperature;BMP_pressure;BME280_temperature;BME280_humidity;BME280_pressure;Samples;Min_cycle;Max_cycle;Signal;HPM_P1;HPM_P2
2022/11/07 00:04:44;;;;;;;19.97;9.93;;;;;;;5.98;100.00;96185.31;10331863;28;20310;-74
2022/11/07 00:09:44;;;;;;;15.43;8.73;;;;;;;6.06;100.00;96176.81;10332053;28;20198;-74
2022/11/07 00:14:45;;;;;;;20.67;11.07;;;;;;;6.01;100.00;96181.63;10331481;28;20182;-74
2022/11/07 00:19:45;;;;;;;21.80;12.30;;;;;;;6.00;100.00;96195.56;10331231;28;20217;-74
2022/11/07 00:24:45;;;;;;;18.60;9.40;;;;;;;6.07;100.00;96181.88;10330924;28;20209;-74
2022/11/07 00:29:46;;;;;;;19.10;10.90;;;;;;;6.03;100.00;96182.28;10331503;28;20190;-74
2022/11/07 00:34:46;;;;;;;18.90;9.67;;;;;;;6.06;100.00;96180.25;10330853;28;20186;-74
2022/11/07 00:39:47;;;;;;;18.30;9.33;;;;;;;6.07;100.00;96189.66;10330655;28;20249;-75
2022/11/07 00:44:47;;;;;;;19.37;11.27;;;;;;;6.09;100.00;96193.91;10330038;28;20217;-74
2022/11/07 00:49:47;;;;;;;17.53;9.63;;;;;;;6.19;100.00;96192.94;10330507;28;20196;-74
2022/11/07 00:54:48;;;;;;;15.57;9.10;;;;;;;6.23;100.00;96207.31;10329311;28;20189;-74
2022/11/07 00:59:48;;;;;;;16.10;9.40;;;;;;;6.29;100.00;96190.28;10330253;28;20281;-74
2022/11/07 01:10:07;;;;;;;14.77;7.47;;;;;;;6.28;100.00;96195.63;10329287;28;20197;-74
2022/11/07 01:15:08;;;;;;;14.33;8.53;;;;;;;6.30;100.00;96196.31;10327941;28;20249;-74
2022/11/07 01:20:09;;;;;;;16.03;9.33;;;;;;;6.16;100.00;96202.81;10328820;28;20213;-74
2022/11/07 01:25:10;;;;;;;17.20;8.73;;;;;;;6.17;100.00;96189.66;10328304;28;20224;-74
2022/11/07 01:30:10;;;;;;;11.70;7.23;;;;;;;6.22;100.00;96197.84;10311555;28;20194;-74
2022/11/07 01:35:11;;;;;;;13.77;8.90;;;;;;;6.31;100.00;96184.94;10328083;28;20197;-74
2022/11/07 01:40:11;;;;;;;16.33;8.40;;;;;;;6.22;100.00;96178.84;10310692;28;20721;-74
2022/11/07 01:45:32;;;;;;;11.67;7.10;;;;;;;6.27;100.00;96176.59;10328003;28;20533;-74
2022/11/07 01:50:32;;;;;;;13.13;7.07;;;;;;;6.30;100.00;96167.72;10326839;28;20209;-74
2022/11/07 01:55:34;;;;;;;9.47;5.03;;;;;;;6.67;100.00;96154.63;10327389;28;20201;-74
2022/11/07 02:00:35;;;;;;;9.43;6.00;;;;;;;6.72;100.00;96122.97;10341692;28;20254;-75
2022/11/07 02:05:39;;;;;;;6.73;4.50;;;;;;;6.74;100.00;96106.25;10334307;28;20225;-75
2022/11/07 02:10:41;;;;;;;6.73;3.90;;;;;;;6.66;100.00;96113.97;10345918;28;20239;-74
2022/11/07 02:15:41;;;;;;;8.13;5.60;;;;;;;6.70;100.00;96122.31;10342025;28;20244;-75
2022/11/07 02:20:43;;;;;;;4.10;3.37;;;;;;;6.74;100.00;96142.69;10326771;28;20396;-74
2022/11/07 02:25:43;;;;;;;5.63;3.70;;;;;;;6.72;100.00;96157.66;10341036;28;20627;-75
2022/11/07 02:30:44;;;;;;;23.33;13.63;;;;;;;6.75;100.00;96146.09;10342617;28;20273;-74
2022/11/07 02:35:46;;;;;;;7.73;3.97;;;;;;;6.88;100.00;96156.19;10325892;28;20210;-74
2022/11/07 02:40:51;;;;;;;4.83;3.50;;;;;;;6.98;100.00;96156.91;10327264;28;20237;-74
2022/11/07 02:45:52;;;;;;;4.50;2.97;;;;;;;7.01;100.00;96174.03;10326506;28;20234;-74
2022/11/07 02:50:53;;;;;;;3.27;2.13;;;;;;;7.19;100.00;96163.63;10341546;28;20248;-74
2022/11/07 02:55:53;;;;;;;5.17;3.03;;;;;;;7.16;100.00;96171.75;10326586;28;20531;-75
2022/11/07 03:00:54;;;;;;;4.97;3.33;;;;;;;7.19;100.00;96172.25;10326150;28;20206;-74
2022/11/07 03:05:54;;;;;;;4.03;3.33;;;;;;;7.09;100.00;96189.72;10326102;28;20581;-74
2022/11/07 03:10:54;;;;;;;4.77;3.77;;;;;;;7.04;100.00;96192.78;10326177;28;20201;-74
2022/11/07 03:15:55;;;;;;;6.10;4.07;;;;;;;7.15;100.00;96199.56;10325395;28;20185;-74
2022/11/07 03:20:55;;;;;;;4.70;3.13;;;;;;;7.02;100.00;96194.72;10308068;28;20268;-74
2022/11/07 03:25:56;;;;;;;3.60;2.20;;;;;;;7.25;100.00;96189.91;10325534;28;20205;-74
2022/11/07 03:31:01;;;;;;;2.40;1.90;;;;;;;7.29;100.00;96206.06;10308771;28;20293;-74
2022/11/07 03:36:01;;;;;;;2.80;1.90;;;;;;;7.22;100.00;96210.22;10308498;28;20225;-74
2022/11/07 03:41:02;;;;;;;2.07;1.83;;;;;;;7.22;100.00;96221.44;10333377;28;20193;-75
2022/11/07 03:46:02;;;;;;;2.23;1.70;;;;;;;7.24;100.00;96229.97;10332427;28;20219;-74
2022/11/07 03:51:04;;;;;;;3.93;1.60;;;;;;;7.16;100.00;96236.88;10332746;28;20198;-75
2022/11/07 03:56:06;;;;;;;4.00;2.07;;;;;;;7.31;100.00;96253.63;10332341;28;20249;-74
2022/11/07 04:01:09;;;;;;;4.17;2.10;;;;;;;7.33;100.00;96259.50;10331440;28;20285;-74
2022/11/07 04:06:09;;;;;;;2.00;1.60;;;;;;;7.36;100.00;96271.44;10361748;28;20741;-74
2022/11/07 04:17:17;;;;;;;3.37;2.20;;;;;;;7.23;100.00;96293.44;10364077;28;20199;-74
2022/11/07 04:21:49;;;;;;;1.90;1.70;;;;;;;6.87;100.00;96302.94;10365271;28;20220;-75
2022/11/07 04:32:08;;;;;;;3.87;2.20;;;;;;;6.68;100.00;96315.06;10365184;28;20753;-74
2022/11/07 04:37:08;;;;;;;4.10;2.40;;;;;;;6.52;100.00;96307.84;10364432;28;20369;-74
2022/11/07 04:42:09;;;;;;;3.47;2.60;;;;;;;6.50;100.00;96319.38;10364176;28;20221;-75
2022/11/07 04:47:09;;;;;;;2.50;2.30;;;;;;;6.47;100.00;96322.25;10363317;28;20227;-75
2022/11/07 04:52:10;;;;;;;3.43;2.50;;;;;;;6.39;100.00;96331.56;10363484;28;20200;-75
2022/11/07 04:57:11;;;;;;;4.23;3.00;;;;;;;6.07;100.00;96343.09;10345654;28;20204;-75
2022/11/07 05:02:11;;;;;;;4.13;2.23;;;;;;;5.93;100.00;96343.50;10365830;28;20262;-74
2022/11/07 05:07:11;;;;;;;4.30;2.00;;;;;;;5.93;100.00;96346.09;10370312;28;20185;-74
2022/11/07 05:12:13;;;;;;;3.03;2.43;;;;;;;6.10;100.00;96343.78;10370348;28;20182;-74
2022/11/07 05:17:14;;;;;;;2.77;2.10;;;;;;;6.07;100.00;96337.91;10368966;28;20193;-74
2022/11/07 05:27:33;;;;;;;6.03;2.70;;;;;;;6.15;100.00;96352.00;10369134;28;20197;-74
2022/11/07 05:32:36;;;;;;;3.53;2.83;;;;;;;6.09;100.00;96348.16;10369639;28;20205;-74
2022/11/07 05:37:37;;;;;;;3.60;2.40;;;;;;;6.34;100.00;96333.78;10368631;28;20237;-74
2022/11/07 05:42:37;;;;;;;4.90;3.07;;;;;;;6.05;100.00;96345.03;10368874;28;20229;-74
2022/11/07 05:47:38;;;;;;;3.87;2.63;;;;;;;6.09;100.00;96355.16;10368438;28;20251;-74
2022/11/07 05:52:38;;;;;;;2.73;2.40;;;;;;;6.22;100.00;96369.50;10369048;28;20191;-74
2022/11/07 05:57:38;;;;;;;3.50;2.60;;;;;;;6.16;100.00;96374.47;10368372;28;20193;-73
2022/11/07 06:02:39;;;;;;;3.33;2.47;;;;;;;6.21;100.00;96390.47;10367939;28;20565;-74
2022/11/07 06:07:39;;;;;;;5.33;2.33;;;;;;;6.15;100.00;96391.81;10368168;28;20554;-74
2022/11/07 06:12:40;;;;;;;4.07;2.30;;;;;;;6.14;100.00;96402.34;10367734;28;20193;-74
2022/11/07 06:17:40;;;;;;;3.70;2.37;;;;;;;6.15;100.00;96409.22;10367832;28;20185;-74
2022/11/07 06:22:40;;;;;;;2.77;2.40;;;;;;;6.25;100.00;96417.84;10367740;28;20213;-75
2022/11/07 06:27:41;;;;;;;6.57;2.67;;;;;;;6.37;100.00;96406.34;10367199;28;20189;-74
2022/11/07 06:32:43;;;;;;;2.57;2.00;;;;;;;6.49;100.00;96407.00;10367621;28;20246;-74
2022/11/07 06:37:43;;;;;;;2.97;1.80;;;;;;;6.51;100.00;96402.50;10366852;28;20654;-74
2022/11/07 06:42:43;;;;;;;2.57;1.83;;;;;;;6.52;100.00;96416.31;10367208;28;20217;-74
2022/11/07 06:47:44;;;;;;;1.77;1.67;;;;;;;6.53;100.00;96413.56;10366638;28;20243;-75
2022/11/07 06:52:44;;;;;;;2.73;2.00;;;;;;;6.54;100.00;96415.22;10367310;28;20181;-74
2022/11/07 06:57:44;;;;;;;2.77;2.00;;;;;;;6.63;100.00;96408.38;10366397;28;20188;-74
2022/11/07 07:02:45;;;;;;;2.00;1.67;;;;;;;6.63;100.00;96418.78;10367042;28;20231;-74
2022/11/07 07:07:45;;;;;;;3.43;2.10;;;;;;;6.86;100.00;96414.09;10366748;28;20744;-74
2022/11/07 07:12:46;;;;;;;2.80;1.70;;;;;;;7.36;100.00;96428.59;10371235;28;20207;-75
2022/11/07 07:17:46;;;;;;;1.50;1.30;;;;;;;8.13;100.00;96420.47;10373985;28;20239;-74
2022/11/07 07:22:47;;;;;;;1.77;1.50;;;;;;;8.23;100.00;96430.84;10374484;28;20213;-75
2022/11/07 07:27:47;;;;;;;2.50;1.20;;;;;;;8.41;100.00;96434.28;10371698;28;20200;-75
2022/11/07 07:32:48;;;;;;;1.17;1.00;;;;;;;8.87;100.00;96432.38;10373923;28;20200;-74
2022/11/07 07:37:49;;;;;;;3.40;1.40;;;;;;;8.91;100.00;96431.13;10373326;28;20240;-74
2022/11/07 07:42:50;;;;;;;4.00;1.33;;;;;;;9.14;100.00;96425.34;10373072;28;20352;-75
2022/11/07 07:47:51;;;;;;;1.23;1.13;;;;;;;9.24;100.00;96422.66;10373457;28;20818;-75
2022/11/07 07:52:56;;;;;;;1.80;1.30;;;;;;;8.81;100.00;96432.19;10371555;28;20198;-74
2022/11/07 07:57:57;;;;;;;1.67;1.07;;;;;;;9.29;100.00;96441.28;10356526;28;20190;-75
2022/11/07 08:03:10;;;;;;;1.73;1.00;;;;;;;9.47;100.00;96451.69;10369076;28;20213;-75
2022/11/07 08:08:10;;;;;;;2.23;1.30;;;;;;;9.60;100.00;96456.47;10406506;28;20201;-75
2022/11/07 08:13:11;;;;;;;1.53;1.20;;;;;;;9.82;100.00;96455.13;10412074;28;20192;-75
2022/11/07 08:18:11;;;;;;;1.70;1.10;;;;;;;9.64;100.00;96460.44;10410702;28;20195;-75
2022/11/07 08:23:11;;;;;;;7.87;1.53;;;;;;;10.08;100.00;96451.59;10399155;28;20223;-75
2022/11/07 08:28:12;;;;;;;1.38;1.20;;;;;;;10.44;100.00;96456.59;10370318;28;20663;-75
2022/11/07 08:33:12;;;;;;;1.33;1.23;;;;;;;9.68;100.00;96467.00;10371593;28;20232;-75
2022/11/07 08:38:16;;;;;;;4.63;1.40;;;;;;;9.81;100.00;96474.41;10370280;28;20299;-75
2022/11/07 08:43:17;;;;;;;2.20;1.27;;;;;;;9.81;100.00;96471.78;10353311;28;20228;-75
2022/11/07 08:48:17;;;;;;;2.83;1.10;;;;;;;10.83;99.68;96445.50;10370377;28;20240;-75
2022/11/07 08:53:17;;;;;;;0.85;0.82;;;;;;;11.31;96.63;96446.38;10353041;28;20725;-75
2022/11/07 08:58:18;;;;;;;1.43;1.03;;;;;;;10.93;96.92;96440.06;10370835;28;20193;-77
2022/11/07 09:03:18;;;;;;;1.37;0.90;;;;;;;11.00;98.21;96447.09;10370293;28;20217;-78
2022/11/07 09:08:19;;;;;;;1.00;0.90;;;;;;;11.14;95.79;96442.19;10369661;28;20280;-76
2022/11/07 09:13:19;;;;;;;1.45;1.15;;;;;;;11.46;94.37;96440.47;10370481;28;20193;-78
2022/11/07 09:18:19;;;;;;;3.40;1.27;;;;;;;11.90;91.80;96443.41;10369895;28;20729;-77
2022/11/07 09:23:20;;;;;;;1.63;1.30;;;;;;;11.50;90.95;96431.25;10352123;28;20237;-78
2022/11/07 09:28:20;;;;;;;2.20;1.08;;;;;;;11.69;92.58;96457.09;10369907;28;20626;-77
2022/11/07 09:33:21;;;;;;;1.33;1.10;;;;;;;11.91;91.37;96436.34;10368502;28;20276;-77
2022/11/07 09:38:22;;;;;;;1.65;0.98;;;;;;;11.78;90.17;96431.66;10368772;28;20229;-78
2022/11/07 09:43:25;;;;;;;2.75;1.23;;;;;;;11.74;88.75;96418.03;10350258;28;20221;-76
2022/11/07 09:48:33;;;;;;;3.20;1.08;;;;;;;12.01;89.71;96439.63;10368551;28;20247;-76
2022/11/07 09:53:38;;;;;;;2.40;1.25;;;;;;;12.00;87.17;96426.66;10350562;28;20195;-77
2022/11/07 09:58:43;;;;;;;4.32;1.25;;;;;;;11.76;87.94;96438.84;10351112;28;20193;-77
2022/11/07 10:03:44;;;;;;;3.28;1.10;;;;;;;11.73;87.40;96429.53;10350310;28;20248;-75
2022/11/07 10:08:50;;;;;;;6.35;1.20;;;;;;;11.87;85.49;96414.88;10367268;28;20197;-75
2022/11/07 10:14:05;;;;;;;2.90;1.20;;;;;;;12.08;84.84;96409.06;10367649;28;20189;-76
2022/11/07 10:19:36;;;;;;;1.98;1.20;;;;;;;12.25;83.41;96407.16;10356028;28;21003;-76
2022/11/07 10:24:59;;;;;;;2.42;1.13;;;;;;;11.71;82.40;96401.81;10370831;28;20312;-76
2022/11/07 10:29:59;;;;;;;4.40;1.40;;;;;;;12.08;80.07;96374.09;10367324;28;20185;-76
2022/11/07 10:35:32;;;;;;;2.33;1.30;;;;;;;12.26;81.56;96400.88;10366752;28;20641;-75
2022/11/07 10:40:37;;;;;;;5.50;1.42;;;;;;;13.18;78.29;96381.53;10321779;28;20613;-75
2022/11/07 10:45:38;;;;;;;3.13;1.35;;;;;;;12.67;78.60;96397.13;10363758;28;20912;-76
2022/11/07 10:50:38;;;;;;;6.75;1.60;;;;;;;11.70;82.89;96432.50;10372583;28;20185;-75
2022/11/07 10:55:44;;;;;;;9.63;1.48;;;;;;;12.15;84.00;96459.06;10354583;28;20189;-75
2022/11/07 11:00:56;;;;;;;4.80;1.63;;;;;;;11.87;84.34;96454.25;10370026;28;20542;-75
2022/11/07 11:06:18;;;;;;;2.08;1.20;;;;;;;12.06;83.00;96439.09;10330872;28;20639;-76
2022/11/07 11:11:27;;;;;;;5.15;1.42;;;;;;;12.20;82.34;96421.78;10354084;28;20193;-76
2022/11/07 11:16:29;;;;;;;6.30;1.80;;;;;;;12.37;82.24;96422.47;10368589;28;20221;-74
2022/11/07 11:21:44;;;;;;;5.03;1.20;;;;;;;12.81;81.26;96427.88;10369262;28;20283;-74
2022/11/07 11:26:46;;;;;;;6.80;1.40;;;;;;;12.45;78.38;96385.63;10352326;28;20197;-76
2022/11/07 11:31:48;;;;;;;3.58;1.35;;;;;;;12.28;79.09;96391.03;10351900;28;20190;-75
2022/11/07 11:37:06;;;;;;;4.53;1.60;;;;;;;12.14;78.06;96376.00;10325050;28;1053405;-76
2022/11/07 11:42:15;;;;;;;4.28;1.30;;;;;;;12.07;80.45;96410.03;10314445;28;20225;-75
2022/11/07 11:47:30;;;;;;;4.38;1.35;;;;;;;12.10;80.01;96398.38;10312604;28;20214;-76
2022/11/07 11:52:34;;;;;;;5.50;1.27;;;;;;;11.61;81.14;96420.41;10313123;28;20200;-75
2022/11/07 11:57:56;;;;;;;3.40;1.20;;;;;;;11.96;79.50;96394.69;10329353;28;20190;-75
2022/11/07 12:03:08;;;;;;;2.13;0.90;;;;;;;11.75;82.29;96429.38;10330445;28;20213;-76
2022/11/07 12:08:39;;;;;;;3.03;1.35;;;;;;;11.67;80.80;96403.97;10343185;28;20190;-74
2022/11/07 12:14:07;;;;;;;6.18;1.10;;;;;;;11.82;81.23;96408.50;10329349;28;20273;-76
2022/11/07 12:19:28;;;;;;;5.57;1.52;;;;;;;11.40;82.26;96415.72;10331118;28;20236;-76
2022/11/07 12:24:40;;;;;;;2.15;0.98;;;;;;;11.42;82.93;96421.59;10329742;28;20226;-76
2022/11/07 12:30:04;;;;;;;3.75;1.15;;;;;;;11.57;82.82;96413.84;10310785;28;20202;-76
2022/11/07 12:35:21;;;;;;;5.73;1.23;;;;;;;11.55;82.69;96408.78;10328596;28;20213;-75
2022/11/07 12:40:55;;;;;;;3.80;1.47;;;;;;;11.27;84.13;96432.00;10364654;28;20701;-76
2022/11/07 12:46:10;;;;;;;6.88;1.55;;;;;;;11.62;82.25;96408.91;10368794;28;20290;-76
2022/11/07 12:51:26;;;;;;;4.93;1.30;;;;;;;11.55;82.29;96426.34;10349772;28;20248;-76
2022/11/07 12:56:31;;;;;;;5.38;1.40;;;;;;;11.35;83.19;96425.91;10350303;28;20284;-76
2022/11/07 13:01:43;;;;;;;5.80;1.63;;;;;;;11.38;84.36;96444.75;10348861;28;20852;-75
2022/11/07 13:07:02;;;;;;;3.80;1.50;;;;;;;11.28;83.02;96427.56;10352406;28;20231;-75
2022/11/07 13:12:27;;;;;;;5.13;1.40;;;;;;;11.46;83.41;96429.97;10350667;28;20207;-75
2022/11/07 13:17:38;;;;;;;3.10;1.23;;;;;;;11.68;82.69;96417.91;10368654;28;20219;-76
2022/11/07 13:22:39;;;;;;;3.47;1.52;;;;;;;11.40;82.97;96416.53;10369583;28;20217;-75
2022/11/07 13:27:44;;;;;;;2.80;1.10;;;;;;;11.31;84.82;96445.59;10350716;28;20221;-75
2022/11/07 13:32:49;;;;;;;4.18;1.27;;;;;;;11.65;84.13;96441.88;10369253;28;20185;-75
2022/11/07 13:37:59;;;;;;;5.50;1.35;;;;;;;11.93;83.69;96445.72;10367074;28;20328;-76
2022/11/07 13:43:12;;;;;;;6.47;1.60;;;;;;;12.01;83.40;96441.44;10350562;28;20681;-76
2022/11/07 13:48:21;;;;;;;5.57;1.30;;;;;;;12.32;82.81;96430.88;10367051;28;20201;-76
2022/11/07 13:53:36;;;;;;;3.10;1.15;;;;;;;12.64;80.51;96403.56;10348608;28;20208;-76
2022/11/07 13:58:38;;;;;;;3.80;1.15;;;;;;;12.94;79.41;96398.38;10347340;28;20194;-76
2022/11/07 14:03:38;;;;;;;4.40;1.40;;;;;;;12.82;77.85;96395.34;10348531;28;20479;-76
2022/11/07 14:08:40;;;;;;;1.83;1.00;;;;;;;12.47;79.28;96418.63;10348487;28;20276;-76
2022/11/07 14:13:40;;;;;;;2.45;1.23;;;;;;;12.53;77.94;96409.25;10348450;28;20189;-76
2022/11/07 14:19:12;;;;;;;3.22;1.08;;;;;;;12.55;78.75;96419.56;10365518;28;20604;-75
2022/11/07 14:24:22;;;;;;;3.00;1.08;;;;;;;11.90;80.43;96432.09;10364557;28;20241;-76
2022/11/07 14:29:22;;;;;;;4.40;0.90;;;;;;;11.83;81.45;96437.19;10362373;28;20181;-75
2022/11/07 14:34:23;;;;;;;6.13;1.30;;;;;;;11.50;81.97;96437.34;10363760;28;20195;-75
2022/11/07 14:39:26;;;;;;;2.45;1.52;;;;;;;11.53;83.05;96460.63;10342275;28;20241;-76
2022/11/07 14:44:33;;;;;;;8.80;6.68;;;;;;;11.24;83.92;96463.81;10328101;28;20217;-76
2022/11/07 14:49:38;;;;;;;6.57;2.05;;;;;;;11.24;84.65;96474.28;10363671;28;20690;-75
2022/11/07 14:54:39;;;;;;;4.93;1.20;;;;;;;11.21;84.32;96466.75;10363925;28;20335;-75
2022/11/07 14:59:40;;;;;;;7.50;4.63;;;;;;;11.02;85.45;96465.28;10364803;28;20549;-75
2022/11/07 15:04:43;;;;;;;4.10;1.80;;;;;;;10.83;86.15;96483.00;10332996;28;20225;-75
2022/11/07 15:09:43;;;;;;;2.97;1.50;;;;;;;10.87;86.58;96480.84;10366574;28;20200;-77
2022/11/07 15:15:36;;;;;;;2.58;0.98;;;;;;;10.81;86.57;96477.09;10348040;28;20186;-76
2022/11/07 15:20:37;;;;;;;3.57;1.00;;;;;;;10.65;87.18;96472.66;10364471;28;20653;-75
2022/11/07 15:25:52;;;;;;;26.85;16.33;;;;;;;10.40;88.68;96481.47;10346146;28;20209;-76
2022/11/07 15:30:55;;;;;;;3.83;2.17;;;;;;;10.28;90.06;96484.34;10346719;28;20557;-75
2022/11/07 15:35:58;;;;;;;3.03;1.73;;;;;;;10.25;90.71;96468.97;10353327;28;20209;-75
2022/11/07 15:40:58;;;;;;;4.63;2.67;;;;;;;10.04;91.34;96472.03;10371431;28;20324;-75
2022/11/07 15:46:00;;;;;;;4.20;1.50;;;;;;;9.99;92.78;96472.50;10371649;28;20217;-75
2022/11/07 15:51:00;;;;;;;3.40;1.30;;;;;;;9.87;93.58;96465.09;10313829;28;20226;-75
2022/11/07 15:56:03;;;;;;;1.50;1.00;;;;;;;9.88;93.55;96472.78;10330465;28;20554;-75
2022/11/07 16:01:04;;;;;;;3.50;1.33;;;;;;;9.71;94.58;96490.22;10353690;28;20657;-75
2022/11/07 16:06:25;;;;;;;4.17;1.20;;;;;;;9.74;94.87;96476.84;10362377;28;20220;-75
2022/11/07 16:11:26;;;;;;;5.57;1.20;;;;;;;9.67;95.64;96488.88;10371089;28;20673;-75
2022/11/07 16:16:31;;;;;;;13.30;5.97;;;;;;;9.54;96.52;96489.31;10372202;28;20186;-75
2022/11/07 16:21:32;;;;;;;6.10;2.10;;;;;;;9.42;97.11;96487.94;10372148;28;20193;-75
2022/11/07 16:26:33;;;;;;;6.57;3.53;;;;;;;9.44;98.09;96496.44;10371856;28;20189;-75
2022/11/07 16:31:33;;;;;;;7.33;1.70;;;;;;;9.52;98.18;96499.09;10372025;28;20193;-75
2022/11/07 16:36:34;;;;;;;3.80;1.67;;;;;;;9.44;99.16;96512.13;10370885;28;20651;-75
2022/11/07 16:41:35;;;;;;;8.67;2.03;;;;;;;9.38;100.00;96515.38;10371219;28;20197;-75
2022/11/07 16:46:35;;;;;;;7.70;1.73;;;;;;;9.40;100.00;96514.25;10370047;28;20189;-75
2022/11/07 16:51:36;;;;;;;5.20;1.80;;;;;;;9.39;100.00;96506.56;10370607;28;20661;-75
2022/11/07 16:56:36;;;;;;;7.60;1.83;;;;;;;9.28;100.00;96513.69;10370028;28;20185;-75
2022/11/07 17:01:37;;;;;;;5.17;1.60;;;;;;;9.34;100.00;96507.03;10369872;28;20530;-75
2022/11/07 17:06:42;;;;;;;5.30;1.60;;;;;;;9.43;100.00;96510.50;10358234;28;20201;-75
2022/11/07 17:11:43;;;;;;;3.80;1.20;;;;;;;9.69;99.89;96507.03;10374199;28;20921;-76
2022/11/07 17:16:46;;;;;;;5.17;1.67;;;;;;;9.80;98.98;96491.91;10366622;28;20243;-75
2022/11/07 17:21:48;;;;;;;5.57;1.30;;;;;;;9.86;99.19;96505.31;10367320;28;20696;-75
2022/11/07 17:26:48;;;;;;;4.43;1.70;;;;;;;9.72;99.95;96497.06;10367774;28;20201;-75
2022/11/07 17:31:49;;;;;;;14.17;8.40;;;;;;;9.71;100.00;96497.22;10368560;28;20185;-75
2022/11/07 17:36:50;;;;;;;9.70;6.97;;;;;;;9.74;100.00;96510.84;10368375;28;20237;-75
2022/11/07 17:41:50;;;;;;;3.63;1.53;;;;;;;9.74;100.00;96518.69;10369058;28;20224;-75
2022/11/07 17:46:51;;;;;;;5.23;3.00;;;;;;;9.71;100.00;96521.63;10369488;28;20208;-75
2022/11/07 17:51:53;;;;;;;10.87;6.07;;;;;;;9.67;100.00;96538.59;10369325;28;20189;-75
2022/11/07 17:56:53;;;;;;;7.33;3.13;;;;;;;9.76;99.49;96524.56;10368808;28;20201;-75
2022/11/07 18:01:53;;;;;;;19.60;11.70;;;;;;;9.71;99.51;96534.69;10369015;28;20681;-75
2022/11/07 18:06:54;;;;;;;7.40;4.23;;;;;;;9.50;100.00;96548.13;10368633;28;20713;-75
2022/11/07 18:11:54;;;;;;;13.10;8.03;;;;;;;9.44;100.00;96543.50;10368762;28;20647;-74
2022/11/07 18:16:55;;;;;;;6.07;1.90;;;;;;;9.51;100.00;96547.16;10367709;28;20197;-75
2022/11/07 18:21:55;;;;;;;8.93;2.80;;;;;;;9.38;100.00;96544.13;10368348;28;20304;-74
2022/11/07 18:26:55;;;;;;;6.83;2.40;;;;;;;9.33;100.00;96541.97;10367290;28;20193;-75
2022/11/07 18:31:56;;;;;;;8.53;4.53;;;;;;;9.27;100.00;96543.41;10367789;28;20551;-75
2022/11/07 18:36:56;;;;;;;11.47;3.33;;;;;;;9.17;100.00;96552.31;10366786;28;20347;-74
2022/11/07 18:41:57;;;;;;;9.00;3.27;;;;;;;9.17;100.00;96560.16;10367417;28;20216;-74
2022/11/07 18:46:57;;;;;;;6.13;2.70;;;;;;;9.20;100.00;96558.03;10364586;28;20212;-74
2022/11/07 18:51:57;;;;;;;6.50;2.63;;;;;;;9.21;100.00;96559.69;10365474;28;20675;-74
2022/11/07 18:56:58;;;;;;;9.27;2.90;;;;;;;9.16;100.00;96556.72;10365649;28;20560;-74
2022/11/07 19:01:58;;;;;;;13.37;8.87;;;;;;;9.09;100.00;96555.66;10365288;28;20209;-74
2022/11/07 19:06:59;;;;;;;10.50;5.23;;;;;;;9.07;100.00;96557.63;10366516;28;20200;-74
2022/11/07 19:12:03;;;;;;;3.97;2.33;;;;;;;9.26;100.00;96565.31;10373777;28;20186;-74
2022/11/07 19:17:03;;;;;;;5.47;2.10;;;;;;;9.10;100.00;96560.75;10372445;28;20224;-75
2022/11/07 19:22:04;;;;;;;3.73;1.87;;;;;;;9.12;100.00;96567.63;10355777;28;20247;-75
2022/11/07 19:27:04;;;;;;;2.57;1.37;;;;;;;9.05;100.00;96567.38;10372711;28;20197;-74
2022/11/07 19:32:05;;;;;;;4.90;1.93;;;;;;;8.85;100.00;96574.56;10372610;28;20182;-74
2022/11/07 19:37:05;;;;;;;5.47;2.13;;;;;;;8.64;100.00;96574.88;10361320;28;20234;-74
2022/11/07 19:42:06;;;;;;;3.13;1.70;;;;;;;8.63;100.00;96578.44;10331636;28;20226;-75
2022/11/07 19:47:06;;;;;;;4.13;1.60;;;;;;;8.69;100.00;96577.84;10330940;28;20197;-74
2022/11/07 19:52:09;;;;;;;4.77;1.60;;;;;;;8.73;100.00;96577.41;10331449;28;20190;-74
2022/11/07 19:57:10;;;;;;;3.00;1.70;;;;;;;8.77;100.00;96574.50;10329316;28;20276;-75
2022/11/07 20:02:11;;;;;;;7.80;1.83;;;;;;;8.62;100.00;96580.25;10329650;28;20316;-75
2022/11/07 20:07:15;;;;;;;4.47;1.63;;;;;;;8.43;100.00;96575.09;10330082;28;20190;-75
2022/11/07 20:12:15;;;;;;;4.93;1.80;;;;;;;8.34;100.00;96576.78;10330557;28;20735;-75
2022/11/07 20:17:16;;;;;;;5.20;1.70;;;;;;;8.34;100.00;96577.59;10329921;28;20206;-75
2022/11/07 20:22:16;;;;;;;3.33;1.77;;;;;;;8.26;100.00;96580.13;10330371;28;20623;-75
2022/11/07 20:27:16;;;;;;;9.83;2.00;;;;;;;8.28;100.00;96580.78;10329962;28;20196;-75
2022/11/07 20:32:17;;;;;;;5.97;1.70;;;;;;;8.27;100.00;96581.78;10328549;28;20185;-75
2022/11/07 20:37:19;;;;;;;5.50;2.23;;;;;;;8.20;100.00;96588.53;10394773;22;20659;-75
2022/11/07 20:42:20;;;;;;;5.90;2.60;;;;;;;8.00;100.00;96590.41;10493269;28;20219;-75
2022/11/07 20:47:21;;;;;;;3.50;1.80;;;;;;;8.21;100.00;96590.19;10493134;28;20561;-75
2022/11/07 20:52:22;;;;;;;9.17;2.00;;;;;;;8.39;100.00;96603.25;10493155;28;20218;-75
2022/11/07 20:57:23;;;;;;;2.77;1.60;;;;;;;8.27;100.00;96596.59;10472955;28;20277;-75
2022/11/07 21:02:24;;;;;;;10.53;2.23;;;;;;;8.05;100.00;96603.81;10457530;28;20586;-75
2022/11/07 21:07:24;;;;;;;5.77;1.70;;;;;;;8.09;100.00;96604.38;10492458;28;20202;-75
2022/11/07 21:12:24;;;;;;;2.93;1.40;;;;;;;8.22;100.00;96604.84;10491869;28;20187;-75
2022/11/07 21:17:25;;;;;;;5.10;1.80;;;;;;;8.15;100.00;96602.00;10474142;28;20195;-75
2022/11/07 21:22:25;;;;;;;4.80;1.50;;;;;;;8.09;100.00;96609.59;10475364;28;20619;-75
2022/11/07 21:27:26;;;;;;;7.30;2.17;;;;;;;7.89;100.00;96603.59;10492480;28;20183;-75
2022/11/07 21:32:26;;;;;;;3.00;2.00;;;;;;;7.86;100.00;96610.75;10492087;28;20611;-75
2022/11/07 21:37:26;;;;;;;4.00;1.70;;;;;;;7.82;100.00;96604.19;10492604;28;20288;-75
2022/11/07 21:42:27;;;;;;;10.10;4.47;;;;;;;7.91;100.00;96605.13;10492408;28;20221;-75
2022/11/07 21:47:28;;;;;;;8.27;5.37;;;;;;;8.00;100.00;96604.25;10492021;28;20252;-75
2022/11/07 21:52:29;;;;;;;12.70;6.63;;;;;;;8.14;100.00;96608.19;10492004;28;20218;-74
2022/11/07 21:57:29;;;;;;;14.00;7.57;;;;;;;8.12;100.00;96604.91;10491717;28;20210;-74
2022/11/07 22:02:29;;;;;;;5.13;2.27;;;;;;;8.26;100.00;96610.63;10491713;28;20218;-75
2022/11/07 22:07:36;;;;;;;3.40;1.93;;;;;;;8.51;100.00;96604.75;10491697;28;20563;-75
2022/11/07 22:12:36;;;;;;;12.80;7.40;;;;;;;8.43;100.00;96602.00;10473565;28;20286;-75
2022/11/07 22:17:37;;;;;;;13.40;5.37;;;;;;;8.52;100.00;96595.13;10473182;28;20218;-74
2022/11/07 22:22:37;;;;;;;4.67;1.77;;;;;;;8.55;100.00;96590.44;10491540;28;20242;-75
2022/11/07 22:27:38;;;;;;;6.23;1.97;;;;;;;8.70;100.00;96589.94;10491055;28;20195;-75
2022/11/07 22:32:38;;;;;;;7.97;3.37;;;;;;;8.74;100.00;96589.50;10491353;28;20187;-75
2022/11/07 22:37:38;;;;;;;7.87;3.37;;;;;;;8.72;100.00;96593.22;10490772;28;20256;-75
2022/11/07 22:42:39;;;;;;;9.20;3.10;;;;;;;8.67;100.00;96598.88;10489738;28;20215;-75
2022/11/07 22:47:39;;;;;;;3.77;1.40;;;;;;;8.70;100.00;96600.38;10490894;28;20216;-75
2022/11/07 22:52:40;;;;;;;7.37;1.60;;;;;;;8.70;100.00;96600.38;10491001;28;20233;-74
2022/11/07 22:57:41;;;;;;;5.47;1.50;;;;;;;8.59;100.00;96597.97;10490063;28;20199;-74
2022/11/07 23:02:42;;;;;;;3.43;1.10;;;;;;;8.57;100.00;96604.19;10490215;28;20425;-74
2022/11/07 23:07:42;;;;;;;2.33;1.70;;;;;;;8.50;100.00;96603.13;10490482;28;20191;-75
2022/11/07 23:12:43;;;;;;;3.07;1.20;;;;;;;8.54;100.00;96606.25;10490511;28;20194;-75
2022/11/07 23:17:43;;;;;;;5.33;1.50;;;;;;;8.53;100.00;96597.59;10472293;28;20195;-75
2022/11/07 23:22:43;;;;;;;3.57;1.40;;;;;;;8.70;100.00;96592.56;10472162;28;20218;-74
2022/11/07 23:27:44;;;;;;;6.47;1.53;;;;;;;8.68;100.00;96597.09;10470872;28;20187;-74
2022/11/07 23:32:44;;;;;;;5.70;1.80;;;;;;;8.89;100.00;96596.81;10489803;28;20188;-74
2022/11/07 23:37:45;;;;;;;4.43;1.70;;;;;;;8.92;100.00;96586.88;10471321;28;20756;-74
2022/11/07 23:42:45;;;;;;;5.40;1.73;;;;;;;8.75;100.00;96591.13;10490233;28;20227;-75
2022/11/07 23:55:35;;;;;;;5.67;1.60;;;;;;;8.90;100.00;96588.81;10490990;28;20218;-74
